sensor_id;sensor_type;location;lat;lon;timestamp;temperature;humidity
13346;DHT22;6742;48.036;15.780;2023-05-10T00:00:05;12.00;99.90
13346;DHT22;6742;48.036;15.780;2023-05-10T00:02:32;12.00;99.90
13346;DHT22;6742;48.036;15.780;2023-05-10T00:04:59;12.00;99.90
13346;DHT22;6742;48.036;15.780;2023-05-10T00:07:26;12.00;99.90
13346;DHT22;6742;48.036;15.780;2023-05-10T00:09:53;11.90;99.90
13346;DHT22;6742;48.036;15.780;2023-05-10T00:12:20;11.90;99.90
13346;DHT22;6742;48.036;15.780;2023-05-10T00:14:47;11.90;99.90
13346;DHT22;6742;48.036;15.780;2023-05-10T00:17:15;11.90;99.90
13346;DHT22;6742;48.036;15.780;2023-05-10T00:19:42;11.90;99.90
13346;DHT22;6742;48.036;15.780;2023-05-10T00:22:09;11.90;99.90
13346;DHT22;6742;48.036;15.780;2023-05-10T00:24:36;12.00;99.90
13346;DHT22;6742;48.036;15.780;2023-05-10T00:27:03;11.90;99.90
13346;DHT22;6742;48.036;15.780;2023-05-10T00:29:30;11.90;99.90
13346;DHT22;6742;48.036;15.780;2023-05-10T00:31:59;11.90;99.90
13346;DHT22;6742;48.036;15.780;2023-05-10T00:34:27;11.90;99.90
13346;DHT22;6742;48.036;15.780;2023-05-10T00:36:54;11.90;99.90
13346;DHT22;6742;48.036;15.780;2023-05-10T00:39:24;11.90;99.90
13346;DHT22;6742;48.036;15.780;2023-05-10T00:41:52;11.90;99.90
13346;DHT22;6742;48.036;15.780;2023-05-10T00:44:18;11.90;99.90
13346;DHT22;6742;48.036;15.780;2023-05-10T00:46:46;11.80;99.90
13346;DHT22;6742;48.036;15.780;2023-05-10T00:49:13;11.90;99.90
13346;DHT22;6742;48.036;15.780;2023-05-10T00:51:42;11.90;99.90
13346;DHT22;6742;48.036;15.780;2023-05-10T00:54:11;11.80;99.90
13346;DHT22;6742;48.036;15.780;2023-05-10T00:56:39;11.80;99.90
13346;DHT22;6742;48.036;15.780;2023-05-10T00:59:08;11.70;99.90
13346;DHT22;6742;48.036;15.780;2023-05-10T01:01:35;11.70;99.90
13346;DHT22;6742;48.036;15.780;2023-05-10T01:04:02;11.70;99.90
13346;DHT22;6742;48.036;15.780;2023-05-10T01:06:30;11.70;99.90
13346;DHT22;6742;48.036;15.780;2023-05-10T01:08:59;11.70;99.90
13346;DHT22;6742;48.036;15.780;2023-05-10T01:11:26;11.70;99.90
13346;DHT22;6742;48.036;15.780;2023-05-10T01:13:55;11.60;99.90
13346;DHT22;6742;48.036;15.780;2023-05-10T01:16:23;11.60;99.90
13346;DHT22;6742;48.036;15.780;2023-05-10T01:18:51;11.60;99.90
13346;DHT22;6742;48.036;15.780;2023-05-10T01:21:27;11.60;99.90
13346;DHT22;6742;48.036;15.780;2023-05-10T01:24:17;11.60;99.90
13346;DHT22;6742;48.036;15.780;2023-05-10T01:27:07;11.60;99.90
13346;DHT22;6742;48.036;15.780;2023-05-10T01:30:01;11.60;99.90
13346;DHT22;6742;48.036;15.780;2023-05-10T01:32:36;11.60;99.90
13346;DHT22;6742;48.036;15.780;2023-05-10T01:35:12;11.60;99.90
13346;DHT22;6742;48.036;15.780;2023-05-10T01:37:43;11.60;99.90
13346;DHT22;6742;48.036;15.780;2023-05-10T01:40:19;11.60;99.90
13346;DHT22;6742;48.036;15.780;2023-05-10T01:43:01;11.60;99.90
13346;DHT22;6742;48.036;15.780;2023-05-10T01:45:31;11.60;99.90
13346;DHT22;6742;48.036;15.780;2023-05-10T01:48:06;11.60;99.90
13346;DHT22;6742;48.036;15.780;2023-05-10T01:50:35;11.60;99.90
13346;DHT22;6742;48.036;15.780;2023-05-10T01:53:05;11.60;99.90
13346;DHT22;6742;48.036;15.780;2023-05-10T01:55:35;11.60;99.90
13346;DHT22;6742;48.036;15.780;2023-05-10T01:58:07;11.60;99.90
13346;DHT22;6742;48.036;15.780;2023-05-10T02:00:36;11.60;99.90
13346;DHT22;6742;48.036;15.780;2023-05-10T02:03:08;11.60;99.90
13346;DHT22;6742;48.036;15.780;2023-05-10T02:05:37;11.60;99.90
13346;DHT22;6742;48.036;15.780;2023-05-10T02:08:06;11.50;99.90
13346;DHT22;6742;48.036;15.780;2023-05-10T02:10:35;11.50;99.90
13346;DHT22;6742;48.036;15.780;2023-05-10T02:13:03;11.50;99.90
13346;DHT22;6742;48.036;15.780;2023-05-10T02:15:33;11.50;99.90
13346;DHT22;6742;48.036;15.780;2023-05-10T02:18:02;11.50;99.90
13346;DHT22;6742;48.036;15.780;2023-05-10T02:20:33;11.50;99.90
13346;DHT22;6742;48.036;15.780;2023-05-10T02:23:02;11.50;99.90
13346;DHT22;6742;48.036;15.780;2023-05-10T02:25:30;11.50;99.90
13346;DHT22;6742;48.036;15.780;2023-05-10T02:28:01;11.50;99.90
13346;DHT22;6742;48.036;15.780;2023-05-10T02:30:29;11.50;99.90
13346;DHT22;6742;48.036;15.780;2023-05-10T02:32:58;11.50;99.90
13346;DHT22;6742;48.036;15.780;2023-05-10T02:35:26;11.40;99.90
13346;DHT22;6742;48.036;15.780;2023-05-10T02:37:56;11.30;99.90
13346;DHT22;6742;48.036;15.780;2023-05-10T02:40:26;11.20;99.90
13346;DHT22;6742;48.036;15.780;2023-05-10T02:42:55;11.20;99.90
13346;DHT22;6742;48.036;15.780;2023-05-10T02:45:27;11.10;99.90
13346;DHT22;6742;48.036;15.780;2023-05-10T02:47:56;11.00;99.90
13346;DHT22;6742;48.036;15.780;2023-05-10T02:50:26;11.00;99.90
13346;DHT22;6742;48.036;15.780;2023-05-10T02:52:59;11.00;99.90
13346;DHT22;6742;48.036;15.780;2023-05-10T02:55:31;10.90;99.90
13346;DHT22;6742;48.036;15.780;2023-05-10T02:58:00;10.90;99.90
13346;DHT22;6742;48.036;15.780;2023-05-10T03:00:28;10.90;99.90
13346;DHT22;6742;48.036;15.780;2023-05-10T03:02:58;10.80;99.90
13346;DHT22;6742;48.036;15.780;2023-05-10T03:05:25;10.80;99.90
13346;DHT22;6742;48.036;15.780;2023-05-10T03:07:52;10.80;99.90
13346;DHT22;6742;48.036;15.780;2023-05-10T03:10:22;10.60;99.90
13346;DHT22;6742;48.036;15.780;2023-05-10T03:13:01;10.50;99.90
13346;DHT22;6742;48.036;15.780;2023-05-10T03:15:38;10.40;99.90
13346;DHT22;6742;48.036;15.780;2023-05-10T03:18:09;10.30;99.90
13346;DHT22;6742;48.036;15.780;2023-05-10T03:20:41;10.20;99.90
13346;DHT22;6742;48.036;15.780;2023-05-10T03:23:12;10.20;99.90
13346;DHT22;6742;48.036;15.780;2023-05-10T03:25:42;10.20;99.90
13346;DHT22;6742;48.036;15.780;2023-05-10T03:28:10;10.20;99.90
13346;DHT22;6742;48.036;15.780;2023-05-10T03:30:38;10.10;99.90
13346;DHT22;6742;48.036;15.780;2023-05-10T03:33:06;10.10;99.90
13346;DHT22;6742;48.036;15.780;2023-05-10T03:35:33;10.10;99.90
13346;DHT22;6742;48.036;15.780;2023-05-10T03:38:00;10.00;99.90
13346;DHT22;6742;48.036;15.780;2023-05-10T03:40:27;9.90;99.90
13346;DHT22;6742;48.036;15.780;2023-05-10T03:42:58;9.90;99.90
13346;DHT22;6742;48.036;15.780;2023-05-10T03:45:26;9.90;99.90
13346;DHT22;6742;48.036;15.780;2023-05-10T03:47:53;9.80;99.90
13346;DHT22;6742;48.036;15.780;2023-05-10T03:50:20;9.90;99.90
13346;DHT22;6742;48.036;15.780;2023-05-10T03:52:47;9.80;99.90
13346;DHT22;6742;48.036;15.780;2023-05-10T03:55:14;9.80;99.90
13346;DHT22;6742;48.036;15.780;2023-05-10T03:57:43;9.90;99.90
13346;DHT22;6742;48.036;15.780;2023-05-10T04:00:12;10.00;99.90
13346;DHT22;6742;48.036;15.780;2023-05-10T04:02:39;10.10;99.90
13346;DHT22;6742;48.036;15.780;2023-05-10T04:05:07;10.10;99.90
13346;DHT22;6742;48.036;15.780;2023-05-10T04:07:34;10.10;99.90
13346;DHT22;6742;48.036;15.780;2023-05-10T04:10:01;10.10;99.90
13346;DHT22;6742;48.036;15.780;2023-05-10T04:12:28;10.20;99.90
13346;DHT22;6742;48.036;15.780;2023-05-10T04:14:55;10.20;99.90
13346;DHT22;6742;48.036;15.780;2023-05-10T04:17:24;10.30;99.90
13346;DHT22;6742;48.036;15.780;2023-05-10T04:19:51;10.30;99.90
13346;DHT22;6742;48.036;15.780;2023-05-10T04:22:20;10.40;99.90
13346;DHT22;6742;48.036;15.780;2023-05-10T04:24:47;10.40;99.90
13346;DHT22;6742;48.036;15.780;2023-05-10T04:27:14;10.40;99.90
13346;DHT22;6742;48.036;15.780;2023-05-10T04:29:41;10.40;99.90
13346;DHT22;6742;48.036;15.780;2023-05-10T04:32:08;10.50;99.90
13346;DHT22;6742;48.036;15.780;2023-05-10T04:34:37;10.50;99.90
13346;DHT22;6742;48.036;15.780;2023-05-10T04:37:04;10.50;99.90
13346;DHT22;6742;48.036;15.780;2023-05-10T04:39:33;10.60;99.90
13346;DHT22;6742;48.036;15.780;2023-05-10T04:42:00;11.40;99.90
13346;DHT22;6742;48.036;15.780;2023-05-10T04:44:28;12.00;99.90
13346;DHT22;6742;48.036;15.780;2023-05-10T04:46:55;12.00;99.90
13346;DHT22;6742;48.036;15.780;2023-05-10T04:49:22;12.00;99.90
13346;DHT22;6742;48.036;15.780;2023-05-10T04:51:50;12.20;99.90
13346;DHT22;6742;48.036;15.780;2023-05-10T04:54:17;12.90;99.90
13346;DHT22;6742;48.036;15.780;2023-05-10T04:56:44;14.10;99.90
13346;DHT22;6742;48.036;15.780;2023-05-10T04:59:11;15.10;99.10
13346;DHT22;6742;48.036;15.780;2023-05-10T05:04:07;17.30;95.60
13346;DHT22;6742;48.036;15.780;2023-05-10T05:06:34;18.30;94.10
13346;DHT22;6742;48.036;15.780;2023-05-10T05:09:02;18.40;92.90
13346;DHT22;6742;48.036;15.780;2023-05-10T05:11:29;18.70;92.60
13346;DHT22;6742;48.036;15.780;2023-05-10T05:13:56;19.00;92.60
13346;DHT22;6742;48.036;15.780;2023-05-10T05:16:24;19.60;92.00
13346;DHT22;6742;48.036;15.780;2023-05-10T05:18:52;19.60;90.70
13346;DHT22;6742;48.036;15.780;2023-05-10T05:21:19;19.70;90.90
13346;DHT22;6742;48.036;15.780;2023-05-10T05:23:47;19.20;91.40
13346;DHT22;6742;48.036;15.780;2023-05-10T05:26:15;18.60;91.80
13346;DHT22;6742;48.036;15.780;2023-05-10T05:28:42;18.40;92.50
13346;DHT22;6742;48.036;15.780;2023-05-10T05:31:09;18.70;92.40
13346;DHT22;6742;48.036;15.780;2023-05-10T05:33:36;19.00;91.70
13346;DHT22;6742;48.036;15.780;2023-05-10T05:36:04;18.70;91.80
13346;DHT22;6742;48.036;15.780;2023-05-10T05:38:31;18.30;92.30
13346;DHT22;6742;48.036;15.780;2023-05-10T05:40:58;16.90;93.30
13346;DHT22;6742;48.036;15.780;2023-05-10T05:43:26;15.70;94.80
13346;DHT22;6742;48.036;15.780;2023-05-10T05:45:54;15.00;96.20
13346;DHT22;6742;48.036;15.780;2023-05-10T05:48:21;14.70;96.90
13346;DHT22;6742;48.036;15.780;2023-05-10T05:50:48;14.70;97.80
13346;DHT22;6742;48.036;15.780;2023-05-10T05:53:17;14.70;97.30
13346;DHT22;6742;48.036;15.780;2023-05-10T05:55:51;14.80;97.20
13346;DHT22;6742;48.036;15.780;2023-05-10T05:58:19;14.80;97.30
13346;DHT22;6742;48.036;15.780;2023-05-10T06:00:47;14.90;97.40
13346;DHT22;6742;48.036;15.780;2023-05-10T06:03:14;15.50;97.00
13346;DHT22;6742;48.036;15.780;2023-05-10T06:05:41;16.20;95.90
13346;DHT22;6742;48.036;15.780;2023-05-10T06:08:08;16.10;95.40
13346;DHT22;6742;48.036;15.780;2023-05-10T06:10:35;16.10;95.80
13346;DHT22;6742;48.036;15.780;2023-05-10T06:13:02;16.10;95.80
13346;DHT22;6742;48.036;15.780;2023-05-10T06:15:29;16.00;96.80
13346;DHT22;6742;48.036;15.780;2023-05-10T06:17:57;15.90;95.80
13346;DHT22;6742;48.036;15.780;2023-05-10T06:20:24;15.70;94.70
13346;DHT22;6742;48.036;15.780;2023-05-10T06:22:51;15.80;95.30
13346;DHT22;6742;48.036;15.780;2023-05-10T06:25:18;15.90;95.00
13346;DHT22;6742;48.036;15.780;2023-05-10T06:27:46;16.10;96.00
13346;DHT22;6742;48.036;15.780;2023-05-10T06:30:13;16.20;95.30
13346;DHT22;6742;48.036;15.780;2023-05-10T06:32:41;16.20;95.00
13346;DHT22;6742;48.036;15.780;2023-05-10T06:35:10;16.20;96.20
13346;DHT22;6742;48.036;15.780;2023-05-10T06:37:37;16.10;96.30
13346;DHT22;6742;48.036;15.780;2023-05-10T06:40:06;16.00;96.50
13346;DHT22;6742;48.036;15.780;2023-05-10T06:42:33;15.80;95.30
13346;DHT22;6742;48.036;15.780;2023-05-10T06:45:00;15.70;95.60
13346;DHT22;6742;48.036;15.780;2023-05-10T06:47:27;15.60;95.60
13346;DHT22;6742;48.036;15.780;2023-05-10T06:49:54;15.60;96.20
13346;DHT22;6742;48.036;15.780;2023-05-10T06:52:23;15.80;96.80
13346;DHT22;6742;48.036;15.780;2023-05-10T06:54:49;15.90;96.60
13346;DHT22;6742;48.036;15.780;2023-05-10T06:57:17;16.00;95.10
13346;DHT22;6742;48.036;15.780;2023-05-10T06:59:44;16.10;95.50
13346;DHT22;6742;48.036;15.780;2023-05-10T07:02:11;16.20;95.80
13346;DHT22;6742;48.036;15.780;2023-05-10T07:04:40;16.10;94.40
13346;DHT22;6742;48.036;15.780;2023-05-10T07:07:07;16.00;95.90
13346;DHT22;6742;48.036;15.780;2023-05-10T07:09:36;16.00;96.10
13346;DHT22;6742;48.036;15.780;2023-05-10T07:12:03;16.00;96.10
13346;DHT22;6742;48.036;15.780;2023-05-10T07:14:30;15.90;98.10
13346;DHT22;6742;48.036;15.780;2023-05-10T07:16:57;15.80;99.90
13346;DHT22;6742;48.036;15.780;2023-05-10T07:19:24;15.80;98.30
13346;DHT22;6742;48.036;15.780;2023-05-10T07:21:51;15.80;98.40
13346;DHT22;6742;48.036;15.780;2023-05-10T07:24:18;15.90;98.70
13346;DHT22;6742;48.036;15.780;2023-05-10T07:26:46;15.90;98.60
13346;DHT22;6742;48.036;15.780;2023-05-10T07:29:13;15.80;97.90
13346;DHT22;6742;48.036;15.780;2023-05-10T07:31:41;15.90;97.40
13346;DHT22;6742;48.036;15.780;2023-05-10T07:34:08;16.10;96.30
13346;DHT22;6742;48.036;15.780;2023-05-10T07:36:37;16.40;95.70
13346;DHT22;6742;48.036;15.780;2023-05-10T07:39:04;16.70;95.90
13346;DHT22;6742;48.036;15.780;2023-05-10T07:41:31;17.20;95.50
13346;DHT22;6742;48.036;15.780;2023-05-10T07:43:59;17.90;94.80
13346;DHT22;6742;48.036;15.780;2023-05-10T07:46:26;18.50;94.80
13346;DHT22;6742;48.036;15.780;2023-05-10T07:48:54;18.60;93.00
13346;DHT22;6742;48.036;15.780;2023-05-10T07:51:21;18.30;93.80
13346;DHT22;6742;48.036;15.780;2023-05-10T07:53:47;18.10;94.40
13346;DHT22;6742;48.036;15.780;2023-05-10T07:56:23;17.90;95.80
13346;DHT22;6742;48.036;15.780;2023-05-10T07:58:53;17.90;94.40
13346;DHT22;6742;48.036;15.780;2023-05-10T08:01:22;17.90;95.30
13346;DHT22;6742;48.036;15.780;2023-05-10T08:03:49;17.80;94.20
13346;DHT22;6742;48.036;15.780;2023-05-10T08:06:17;17.70;95.00
13346;DHT22;6742;48.036;15.780;2023-05-10T08:08:45;17.80;98.70
13346;DHT22;6742;48.036;15.780;2023-05-10T08:11:15;18.00;95.70
13346;DHT22;6742;48.036;15.780;2023-05-10T08:13:42;18.10;98.60
13346;DHT22;6742;48.036;15.780;2023-05-10T08:16:09;17.80;95.70
13346;DHT22;6742;48.036;15.780;2023-05-10T08:18:37;17.70;95.60
13346;DHT22;6742;48.036;15.780;2023-05-10T08:21:05;17.70;97.40
13346;DHT22;6742;48.036;15.780;2023-05-10T08:23:32;17.70;98.00
13346;DHT22;6742;48.036;15.780;2023-05-10T08:25:59;17.70;98.30
13346;DHT22;6742;48.036;15.780;2023-05-10T08:28:26;17.70;97.20
13346;DHT22;6742;48.036;15.780;2023-05-10T08:30:53;17.70;97.10
13346;DHT22;6742;48.036;15.780;2023-05-10T08:33:21;17.70;96.80
13346;DHT22;6742;48.036;15.780;2023-05-10T08:35:49;17.70;96.90
13346;DHT22;6742;48.036;15.780;2023-05-10T08:38:17;17.70;95.60
13346;DHT22;6742;48.036;15.780;2023-05-10T08:40:45;17.60;94.50
13346;DHT22;6742;48.036;15.780;2023-05-10T08:43:13;17.50;99.10
13346;DHT22;6742;48.036;15.780;2023-05-10T08:45:42;17.50;96.60
13346;DHT22;6742;48.036;15.780;2023-05-10T08:48:11;17.50;95.80
13346;DHT22;6742;48.036;15.780;2023-05-10T08:50:39;17.60;97.90
13346;DHT22;6742;48.036;15.780;2023-05-10T08:53:10;17.70;96.90
13346;DHT22;6742;48.036;15.780;2023-05-10T08:55:38;17.90;98.50
13346;DHT22;6742;48.036;15.780;2023-05-10T08:58:06;17.90;95.00
13346;DHT22;6742;48.036;15.780;2023-05-10T09:00:33;18.00;96.10
13346;DHT22;6742;48.036;15.780;2023-05-10T09:03:01;18.10;97.10
13346;DHT22;6742;48.036;15.780;2023-05-10T09:05:28;18.20;95.00
13346;DHT22;6742;48.036;15.780;2023-05-10T09:07:55;18.20;96.50
13346;DHT22;6742;48.036;15.780;2023-05-10T09:10:25;18.20;96.10
13346;DHT22;6742;48.036;15.780;2023-05-10T09:12:53;18.20;95.30
13346;DHT22;6742;48.036;15.780;2023-05-10T09:15:22;18.30;94.20
13346;DHT22;6742;48.036;15.780;2023-05-10T09:17:53;18.30;93.70
13346;DHT22;6742;48.036;15.780;2023-05-10T09:20:23;18.50;95.60
13346;DHT22;6742;48.036;15.780;2023-05-10T09:22:50;18.70;94.60
13346;DHT22;6742;48.036;15.780;2023-05-10T09:25:17;18.70;93.50
13346;DHT22;6742;48.036;15.780;2023-05-10T09:27:47;18.90;94.20
13346;DHT22;6742;48.036;15.780;2023-05-10T09:30:16;18.90;94.20
13346;DHT22;6742;48.036;15.780;2023-05-10T09:32:44;18.90;92.90
13346;DHT22;6742;48.036;15.780;2023-05-10T09:35:12;19.00;92.60
13346;DHT22;6742;48.036;15.780;2023-05-10T09:37:39;19.20;92.70
13346;DHT22;6742;48.036;15.780;2023-05-10T09:40:11;19.30;95.00
13346;DHT22;6742;48.036;15.780;2023-05-10T09:42:38;19.40;96.70
13346;DHT22;6742;48.036;15.780;2023-05-10T09:45:08;19.50;93.60
13346;DHT22;6742;48.036;15.780;2023-05-10T09:47:35;19.60;93.00
13346;DHT22;6742;48.036;15.780;2023-05-10T09:50:03;19.60;93.60
13346;DHT22;6742;48.036;15.780;2023-05-10T09:52:31;19.50;93.40
13346;DHT22;6742;48.036;15.780;2023-05-10T09:55:12;19.40;93.30
13346;DHT22;6742;48.036;15.780;2023-05-10T09:57:39;19.10;92.70
13346;DHT22;6742;48.036;15.780;2023-05-10T10:00:08;18.90;91.70
13346;DHT22;6742;48.036;15.780;2023-05-10T10:02:36;18.60;93.30
13346;DHT22;6742;48.036;15.780;2023-05-10T10:05:03;18.50;93.70
13346;DHT22;6742;48.036;15.780;2023-05-10T10:07:33;18.40;95.00
13346;DHT22;6742;48.036;15.780;2023-05-10T10:10:00;18.40;93.30
13346;DHT22;6742;48.036;15.780;2023-05-10T10:12:28;18.40;93.30
13346;DHT22;6742;48.036;15.780;2023-05-10T10:14:55;18.40;95.30
13346;DHT22;6742;48.036;15.780;2023-05-10T10:17:25;18.60;94.50
13346;DHT22;6742;48.036;15.780;2023-05-10T10:19:54;18.50;96.10
13346;DHT22;6742;48.036;15.780;2023-05-10T10:22:22;18.60;94.90
13346;DHT22;6742;48.036;15.780;2023-05-10T10:24:50;18.60;92.70
13346;DHT22;6742;48.036;15.780;2023-05-10T10:27:23;18.50;93.30
13346;DHT22;6742;48.036;15.780;2023-05-10T10:30:00;18.60;93.30
13346;DHT22;6742;48.036;15.780;2023-05-10T10:32:42;18.60;93.80
13346;DHT22;6742;48.036;15.780;2023-05-10T10:35:15;18.70;92.70
13346;DHT22;6742;48.036;15.780;2023-05-10T10:37:47;18.70;96.50
13346;DHT22;6742;48.036;15.780;2023-05-10T10:40:27;18.60;91.40
13346;DHT22;6742;48.036;15.780;2023-05-10T10:42:55;18.60;94.90
13346;DHT22;6742;48.036;15.780;2023-05-10T10:45:23;18.70;94.20
13346;DHT22;6742;48.036;15.780;2023-05-10T10:48:21;18.70;93.30
13346;DHT22;6742;48.036;15.780;2023-05-10T10:50:56;18.80;92.30
13346;DHT22;6742;48.036;15.780;2023-05-10T10:53:26;18.90;92.10
13346;DHT22;6742;48.036;15.780;2023-05-10T10:56:04;19.00;93.20
13346;DHT22;6742;48.036;15.780;2023-05-10T10:58:33;19.10;93.50
13346;DHT22;6742;48.036;15.780;2023-05-10T11:01:11;19.10;92.40
13346;DHT22;6742;48.036;15.780;2023-05-10T11:03:39;19.10;91.40
13346;DHT22;6742;48.036;15.780;2023-05-10T11:06:06;19.00;93.80
13346;DHT22;6742;48.036;15.780;2023-05-10T11:08:40;19.30;94.20
13346;DHT22;6742;48.036;15.780;2023-05-10T11:11:08;19.40;93.50
13346;DHT22;6742;48.036;15.780;2023-05-10T11:13:39;19.50;92.90
13346;DHT22;6742;48.036;15.780;2023-05-10T11:16:11;19.60;91.60
13346;DHT22;6742;48.036;15.780;2023-05-10T11:18:40;19.60;92.90
13346;DHT22;6742;48.036;15.780;2023-05-10T11:21:15;19.70;90.90
13346;DHT22;6742;48.036;15.780;2023-05-10T11:23:50;19.80;92.40
13346;DHT22;6742;48.036;15.780;2023-05-10T11:26:17;19.60;92.70
13346;DHT22;6742;48.036;15.780;2023-05-10T11:28:49;19.70;91.20
13346;DHT22;6742;48.036;15.780;2023-05-10T11:31:17;19.80;90.70
13346;DHT22;6742;48.036;15.780;2023-05-10T11:33:46;19.80;90.70
13346;DHT22;6742;48.036;15.780;2023-05-10T11:36:15;19.80;93.80
13346;DHT22;6742;48.036;15.780;2023-05-10T11:38:42;19.70;91.60
13346;DHT22;6742;48.036;15.780;2023-05-10T11:41:10;19.70;90.50
13346;DHT22;6742;48.036;15.780;2023-05-10T11:43:39;19.70;91.20
13346;DHT22;6742;48.036;15.780;2023-05-10T11:46:07;19.70;92.50
13346;DHT22;6742;48.036;15.780;2023-05-10T11:48:34;19.60;93.30
13346;DHT22;6742;48.036;15.780;2023-05-10T11:51:03;19.60;90.50
13346;DHT22;6742;48.036;15.780;2023-05-10T11:53:31;19.50;92.80
13346;DHT22;6742;48.036;15.780;2023-05-10T11:56:03;19.50;91.90
13346;DHT22;6742;48.036;15.780;2023-05-10T11:58:31;19.50;90.90
13346;DHT22;6742;48.036;15.780;2023-05-10T12:00:58;19.60;91.00
13346;DHT22;6742;48.036;15.780;2023-05-10T12:03:25;19.80;93.60
13346;DHT22;6742;48.036;15.780;2023-05-10T12:05:53;20.00;91.50
13346;DHT22;6742;48.036;15.780;2023-05-10T12:08:23;20.20;90.10
13346;DHT22;6742;48.036;15.780;2023-05-10T12:10:50;20.30;92.70
13346;DHT22;6742;48.036;15.780;2023-05-10T12:13:19;20.40;92.40
13346;DHT22;6742;48.036;15.780;2023-05-10T12:15:46;20.50;91.00
13346;DHT22;6742;48.036;15.780;2023-05-10T12:18:14;20.50;91.40
13346;DHT22;6742;48.036;15.780;2023-05-10T12:20:41;20.50;90.70
13346;DHT22;6742;48.036;15.780;2023-05-10T12:23:09;20.50;92.40
13346;DHT22;6742;48.036;15.780;2023-05-10T12:25:37;20.50;92.00
13346;DHT22;6742;48.036;15.780;2023-05-10T12:28:06;20.40;90.10
13346;DHT22;6742;48.036;15.780;2023-05-10T12:30:35;20.60;95.80
13346;DHT22;6742;48.036;15.780;2023-05-10T12:33:07;20.60;94.70
13346;DHT22;6742;48.036;15.780;2023-05-10T12:35:43;20.50;89.20
13346;DHT22;6742;48.036;15.780;2023-05-10T12:38:26;20.50;88.60
13346;DHT22;6742;48.036;15.780;2023-05-10T12:40:56;20.40;89.90
13346;DHT22;6742;48.036;15.780;2023-05-10T12:43:26;20.20;90.00
13346;DHT22;6742;48.036;15.780;2023-05-10T12:45:55;20.10;90.80
13346;DHT22;6742;48.036;15.780;2023-05-10T12:48:22;19.90;91.00
13346;DHT22;6742;48.036;15.780;2023-05-10T12:50:49;19.80;88.70
13346;DHT22;6742;48.036;15.780;2023-05-10T12:53:16;19.60;92.00
13346;DHT22;6742;48.036;15.780;2023-05-10T12:55:43;19.60;92.90
13346;DHT22;6742;48.036;15.780;2023-05-10T12:58:12;19.70;94.50
13346;DHT22;6742;48.036;15.780;2023-05-10T13:00:39;19.50;92.60
13346;DHT22;6742;48.036;15.780;2023-05-10T13:03:06;19.40;89.80
13346;DHT22;6742;48.036;15.780;2023-05-10T13:05:33;19.30;92.30
13346;DHT22;6742;48.036;15.780;2023-05-10T13:08:00;19.50;91.10
13346;DHT22;6742;48.036;15.780;2023-05-10T13:10:28;19.40;90.80
13346;DHT22;6742;48.036;15.780;2023-05-10T13:12:55;19.50;91.80
13346;DHT22;6742;48.036;15.780;2023-05-10T13:15:24;19.60;90.70
13346;DHT22;6742;48.036;15.780;2023-05-10T13:17:52;19.50;91.90
13346;DHT22;6742;48.036;15.780;2023-05-10T13:20:19;19.50;90.10
13346;DHT22;6742;48.036;15.780;2023-05-10T13:22:46;19.50;91.20
13346;DHT22;6742;48.036;15.780;2023-05-10T13:25:13;19.50;91.90
13346;DHT22;6742;48.036;15.780;2023-05-10T13:27:40;19.50;90.60
13346;DHT22;6742;48.036;15.780;2023-05-10T13:30:08;19.60;92.60
13346;DHT22;6742;48.036;15.780;2023-05-10T13:32:36;19.60;91.50
13346;DHT22;6742;48.036;15.780;2023-05-10T13:35:04;19.70;94.80
13346;DHT22;6742;48.036;15.780;2023-05-10T13:37:32;19.80;93.40
13346;DHT22;6742;48.036;15.780;2023-05-10T13:40:01;19.80;92.20
13346;DHT22;6742;48.036;15.780;2023-05-10T13:42:28;19.60;92.90
13346;DHT22;6742;48.036;15.780;2023-05-10T13:44:55;19.60;94.90
13346;DHT22;6742;48.036;15.780;2023-05-10T13:47:22;19.60;91.70
13346;DHT22;6742;48.036;15.780;2023-05-10T13:49:50;19.50;90.40
13346;DHT22;6742;48.036;15.780;2023-05-10T13:52:17;19.50;92.70
13346;DHT22;6742;48.036;15.780;2023-05-10T13:54:44;19.60;92.00
13346;DHT22;6742;48.036;15.780;2023-05-10T13:57:11;19.60;91.20
13346;DHT22;6742;48.036;15.780;2023-05-10T13:59:39;19.60;90.40
13346;DHT22;6742;48.036;15.780;2023-05-10T14:02:06;19.60;92.90
13346;DHT22;6742;48.036;15.780;2023-05-10T14:04:33;19.50;91.10
13346;DHT22;6742;48.036;15.780;2023-05-10T14:07:02;19.50;91.60
13346;DHT22;6742;48.036;15.780;2023-05-10T14:09:29;19.40;91.00
13346;DHT22;6742;48.036;15.780;2023-05-10T14:11:56;19.30;88.80
13346;DHT22;6742;48.036;15.780;2023-05-10T14:14:23;19.20;90.90
13346;DHT22;6742;48.036;15.780;2023-05-10T14:16:50;19.20;92.40
13346;DHT22;6742;48.036;15.780;2023-05-10T14:19:17;19.20;90.30
13346;DHT22;6742;48.036;15.780;2023-05-10T14:21:44;19.10;91.20
13346;DHT22;6742;48.036;15.780;2023-05-10T14:24:12;19.10;89.00
13346;DHT22;6742;48.036;15.780;2023-05-10T14:26:39;19.00;90.20
13346;DHT22;6742;48.036;15.780;2023-05-10T14:29:06;18.90;92.60
13346;DHT22;6742;48.036;15.780;2023-05-10T14:31:33;18.90;91.10
13346;DHT22;6742;48.036;15.780;2023-05-10T14:34:00;18.90;91.70
13346;DHT22;6742;48.036;15.780;2023-05-10T14:36:28;18.70;90.00
13346;DHT22;6742;48.036;15.780;2023-05-10T14:38:55;18.60;90.30
13346;DHT22;6742;48.036;15.780;2023-05-10T14:41:24;18.60;90.70
13346;DHT22;6742;48.036;15.780;2023-05-10T14:43:51;18.50;90.60
13346;DHT22;6742;48.036;15.780;2023-05-10T14:46:18;18.50;90.10
13346;DHT22;6742;48.036;15.780;2023-05-10T14:48:45;18.50;92.30
13346;DHT22;6742;48.036;15.780;2023-05-10T14:51:12;18.50;92.80
13346;DHT22;6742;48.036;15.780;2023-05-10T14:53:39;18.60;91.40
13346;DHT22;6742;48.036;15.780;2023-05-10T14:56:06;18.50;91.60
13346;DHT22;6742;48.036;15.780;2023-05-10T14:58:35;18.60;92.00
13346;DHT22;6742;48.036;15.780;2023-05-10T15:01:01;18.50;90.70
13346;DHT22;6742;48.036;15.780;2023-05-10T15:03:28;18.40;91.60
13346;DHT22;6742;48.036;15.780;2023-05-10T15:05:56;18.40;93.00
13346;DHT22;6742;48.036;15.780;2023-05-10T15:08:23;18.50;91.60
13346;DHT22;6742;48.036;15.780;2023-05-10T15:10:50;18.40;93.80
13346;DHT22;6742;48.036;15.780;2023-05-10T15:13:17;18.40;92.00
13346;DHT22;6742;48.036;15.780;2023-05-10T15:15:46;18.40;91.70
13346;DHT22;6742;48.036;15.780;2023-05-10T15:18:13;18.30;91.90
13346;DHT22;6742;48.036;15.780;2023-05-10T15:20:40;18.20;91.90
13346;DHT22;6742;48.036;15.780;2023-05-10T15:23:07;18.20;91.50
13346;DHT22;6742;48.036;15.780;2023-05-10T15:25:34;18.10;91.40
13346;DHT22;6742;48.036;15.780;2023-05-10T15:28:03;18.00;92.50
13346;DHT22;6742;48.036;15.780;2023-05-10T15:30:30;18.00;92.90
13346;DHT22;6742;48.036;15.780;2023-05-10T15:32:58;18.00;91.70
13346;DHT22;6742;48.036;15.780;2023-05-10T15:35:25;17.80;91.60
13346;DHT22;6742;48.036;15.780;2023-05-10T15:37:52;17.80;93.30
13346;DHT22;6742;48.036;15.780;2023-05-10T15:40:19;17.80;92.30